Time;durP1;ratioP1;P1;durP2;ratioP2;P2;SDS_P1;SDS_P2;PMS_P1;PMS_P2;Temp;Humidity;BMP_temperature;BMP_pressure;BME280_temperature;BME280_humidity;BME280_pressure;Samples;Min_cycle;Max_cycle;Signal;HPM_P1;HPM_P2
2021/07/13 00:01:39;;;;;;;24.70;18.25;;;;;;;;;;5121874;28;20503;-82
2021/07/13 00:04:05;;;;;;;26.52;19.02;;;;;;;;;;5121448;28;20024;-81
2021/07/13 00:06:31;;;;;;;23.02;17.52;;;;;;;;;;5121512;28;20152;-82
2021/07/13 00:08:58;;;;;;;23.33;17.27;;;;;;;;;;5121652;28;20039;-81
2021/07/13 00:11:24;;;;;;;25.50;15.75;;;;;;;;;;5121323;28;20019;-81
2021/07/13 00:13:51;;;;;;;23.02;15.98;;;;;;;;;;5121196;28;20070;-82
2021/07/13 00:16:17;;;;;;;25.80;16.13;;;;;;;;;;5121230;28;20023;-81
2021/07/13 00:18:43;;;;;;;22.35;15.98;;;;;;;;;;5120116;28;20123;-81
2021/07/13 00:21:10;;;;;;;17.60;15.55;;;;;;;;;;5119416;28;20035;-81
2021/07/13 00:23:36;;;;;;;19.17;15.10;;;;;;;;;;5121079;28;20035;-81
2021/07/13 00:26:03;;;;;;;23.80;15.18;;;;;;;;;;5119883;28;20114;-81
2021/07/13 00:28:29;;;;;;;19.52;14.85;;;;;;;;;;5120993;28;20055;-82
2021/07/13 00:30:55;;;;;;;22.95;14.57;;;;;;;;;;5120980;28;20020;-83
2021/07/13 00:33:21;;;;;;;21.60;14.40;;;;;;;;;;5119667;28;20350;-82
2021/07/13 00:35:47;;;;;;;20.40;14.80;;;;;;;;;;5120871;28;20103;-83
2021/07/13 00:38:13;;;;;;;21.08;14.95;;;;;;;;;;5121164;28;20031;-82
2021/07/13 00:40:39;;;;;;;17.10;14.35;;;;;;;;;;5120526;28;20119;-82
2021/07/13 00:43:05;;;;;;;18.80;15.30;;;;;;;;;;5120685;28;20421;-83
2021/07/13 00:45:31;;;;;;;19.77;14.75;;;;;;;;;;5120838;28;20020;-83
2021/07/13 00:47:57;;;;;;;16.70;14.63;;;;;;;;;;5120656;28;20068;-82
2021/07/13 00:50:25;;;;;;;18.42;14.50;;;;;;;;;;5120923;28;20034;-83
2021/07/13 00:52:51;;;;;;;18.80;14.20;;;;;;;;;;5119175;28;20023;-82
2021/07/13 00:55:18;;;;;;;16.77;13.48;;;;;;;;;;5120801;28;20348;-83
2021/07/13 00:57:45;;;;;;;19.45;13.75;;;;;;;;;;5120550;28;20020;-82
2021/07/13 01:00:12;;;;;;;22.30;15.32;;;;;;;;;;5119401;28;20035;-82
2021/07/13 01:02:38;;;;;;;16.48;14.77;;;;;;;;;;5120568;28;20313;-83
2021/07/13 01:05:07;;;;;;;17.92;14.70;;;;;;;;;;5118903;28;20036;-82
2021/07/13 01:07:52;;;;;;;16.13;13.77;;;;;;;;;;5120298;28;20047;-82
2021/07/13 01:10:37;;;;;;;25.60;15.15;;;;;;;;;;5120486;28;20024;-82
2021/07/13 01:13:17;;;;;;;19.70;15.10;;;;;;;;;;5120235;28;20030;-83
2021/07/13 01:15:47;;;;;;;18.90;14.63;;;;;;;;;;5118936;28;20043;-83
2021/07/13 01:18:18;;;;;;;21.92;15.55;;;;;;;;;;5118809;28;20035;-83
2021/07/13 01:20:53;;;;;;;16.70;15.00;;;;;;;;;;5120322;28;20028;-83
2021/07/13 01:23:27;;;;;;;18.40;15.45;;;;;;;;;;5118892;28;20019;-82
2021/07/13 01:26:12;;;;;;;19.27;15.63;;;;;;;;;;5119839;28;20035;-83
2021/07/13 01:28:44;;;;;;;19.33;15.82;;;;;;;;;;5120007;28;20352;-83
2021/07/13 01:31:12;;;;;;;19.13;16.83;;;;;;;;;;5118836;28;20368;-83
2021/07/13 01:33:39;;;;;;;23.60;16.80;;;;;;;;;;5118881;28;20325;-82
2021/07/13 01:36:09;;;;;;;21.88;16.48;;;;;;;;;;5119958;28;20023;-83
2021/07/13 01:38:37;;;;;;;21.02;16.63;;;;;;;;;;5119771;28;20030;-83
2021/07/13 01:41:08;;;;;;;19.77;16.83;;;;;;;;;;5119587;28;20069;-82
2021/07/13 01:43:35;;;;;;;22.27;16.30;;;;;;;;;;5119822;28;20106;-83
2021/07/13 01:46:02;;;;;;;18.23;16.25;;;;;;;;;;5119603;28;20424;-83
2021/07/13 01:48:30;;;;;;;18.27;16.50;;;;;;;;;;5118674;28;20023;-81
2021/07/13 01:50:57;;;;;;;19.40;16.92;;;;;;;;;;5119623;28;20089;-82
2021/07/13 01:53:24;;;;;;;21.08;17.55;;;;;;;;;;5119391;28;20050;-81
2021/07/13 01:56:03;;;;;;;25.40;17.83;;;;;;;;;;5119648;28;20024;-81
2021/07/13 01:58:30;;;;;;;20.92;17.88;;;;;;;;;;5117873;28;20055;-81
2021/07/13 02:00:58;;;;;;;24.98;18.48;;;;;;;;;;5119451;28;20020;-82
2021/07/13 02:03:25;;;;;;;26.58;19.08;;;;;;;;;;5118252;28;20036;-82
2021/07/13 02:05:52;;;;;;;23.63;19.45;;;;;;;;;;5118276;28;20020;-82
2021/07/13 02:08:19;;;;;;;22.75;18.52;;;;;;;;;;5118686;28;20069;-82
2021/07/13 02:10:45;;;;;;;22.25;19.88;;;;;;;;;;5117436;28;20321;-81
2021/07/13 02:13:30;;;;;;;25.27;19.02;;;;;;;;;;5118901;28;20064;-82
2021/07/13 02:15:59;;;;;;;24.75;19.77;;;;;;;;;;5078645;28;20045;-81
2021/07/13 02:18:25;;;;;;;23.30;20.80;;;;;;;;;;5078223;28;20481;-81
2021/07/13 02:20:51;;;;;;;26.40;19.52;;;;;;;;;;5078029;28;20403;-82
2021/07/13 02:23:17;;;;;;;21.35;19.13;;;;;;;;;;5077107;28;20059;-82
2021/07/13 02:25:44;;;;;;;23.70;19.83;;;;;;;;;;5078107;28;20032;-81
2021/07/13 02:28:19;;;;;;;21.55;19.25;;;;;;;;;;5078017;28;20033;-81
2021/07/13 02:30:48;;;;;;;22.20;19.23;;;;;;;;;;5077317;28;20036;-81
2021/07/13 02:33:26;;;;;;;23.95;19.35;;;;;;;;;;5077125;28;20426;-82
2021/07/13 02:35:56;;;;;;;22.55;19.90;;;;;;;;;;5077928;28;20108;-81
2021/07/13 02:38:22;;;;;;;24.10;19.20;;;;;;;;;;5077800;28;20365;-81
2021/07/13 02:40:50;;;;;;;33.05;19.55;;;;;;;;;;5077788;28;20060;-81
2021/07/13 02:43:16;;;;;;;22.67;19.33;;;;;;;;;;5078022;28;20068;-81
2021/07/13 02:45:43;;;;;;;24.55;20.20;;;;;;;;;;5078305;28;20028;-82
2021/07/13 02:48:10;;;;;;;22.58;19.50;;;;;;;;;;5077603;28;20043;-82
2021/07/13 02:50:37;;;;;;;28.27;20.42;;;;;;;;;;5077737;28;20111;-82
2021/07/13 02:53:04;;;;;;;22.98;20.48;;;;;;;;;;5077742;28;20024;-82
2021/07/13 02:55:31;;;;;;;24.75;19.75;;;;;;;;;;5077518;28;20406;-81
2021/07/13 02:57:58;;;;;;;26.80;20.30;;;;;;;;;;5077458;28;20033;-82
2021/07/13 03:00:24;;;;;;;24.02;20.23;;;;;;;;;;5077596;28;20024;-82
2021/07/13 03:02:51;;;;;;;26.65;19.88;;;;;;;;;;5077323;28;20035;-82
2021/07/13 03:05:17;;;;;;;23.10;20.67;;;;;;;;;;5076343;28;20024;-82
2021/07/13 03:07:45;;;;;;;26.45;20.95;;;;;;;;;;5076724;28;20028;-82
2021/07/13 03:10:11;;;;;;;25.42;19.63;;;;;;;;;;5077374;28;20077;-82
2021/07/13 03:12:37;;;;;;;27.00;20.65;;;;;;;;;;5077258;28;20016;-82
2021/07/13 03:15:04;;;;;;;23.80;20.02;;;;;;;;;;5103587;28;20043;-82
2021/07/13 03:17:31;;;;;;;24.20;18.65;;;;;;;;;;5117802;28;20024;-82
2021/07/13 03:19:57;;;;;;;23.83;19.30;;;;;;;;;;5117506;28;20073;-82
2021/07/13 03:22:25;;;;;;;29.48;19.40;;;;;;;;;;5117315;28;20027;-82
2021/07/13 03:24:51;;;;;;;24.73;17.98;;;;;;;;;;5117762;28;20027;-82
2021/07/13 03:27:21;;;;;;;21.13;17.92;;;;;;;;;;5117433;28;20428;-82
2021/07/13 03:29:47;;;;;;;22.52;18.35;;;;;;;;;;5117919;28;20027;-82
2021/07/13 03:32:15;;;;;;;18.98;17.08;;;;;;;;;;5117850;28;20038;-82
2021/07/13 03:34:42;;;;;;;24.30;17.60;;;;;;;;;;5117905;28;20024;-82
2021/07/13 03:37:09;;;;;;;24.77;17.02;;;;;;;;;;5117914;28;20314;-82
2021/07/13 03:39:35;;;;;;;38.17;17.85;;;;;;;;;;5117800;28;20062;-82
2021/07/13 03:42:01;;;;;;;27.88;18.15;;;;;;;;;;5117605;28;20019;-82
2021/07/13 03:44:27;;;;;;;20.27;18.10;;;;;;;;;;5116586;28;20064;-81
2021/07/13 03:46:53;;;;;;;19.83;16.27;;;;;;;;;;5117383;28;20069;-82
2021/07/13 03:49:23;;;;;;;17.92;16.05;;;;;;;;;;5117574;28;20024;-82
2021/07/13 03:51:49;;;;;;;24.33;17.15;;;;;;;;;;5117510;28;20019;-82
2021/07/13 03:54:16;;;;;;;20.60;17.00;;;;;;;;;;5115899;28;20032;-81
2021/07/13 03:56:42;;;;;;;26.23;18.23;;;;;;;;;;5117443;28;20039;-81
2021/07/13 03:59:08;;;;;;;19.40;17.40;;;;;;;;;;5116386;28;20055;-81
2021/07/13 04:01:35;;;;;;;22.25;19.27;;;;;;;;;;5117252;28;20314;-81
2021/07/13 04:04:01;;;;;;;19.45;17.33;;;;;;;;;;5117416;28;20053;-81
2021/07/13 04:06:28;;;;;;;19.98;16.52;;;;;;;;;;5117317;28;20098;-81
2021/07/13 04:08:54;;;;;;;20.60;16.35;;;;;;;;;;5117373;28;20031;-81
2021/07/13 04:11:20;;;;;;;18.48;16.35;;;;;;;;;;5116977;28;20028;-81
2021/07/13 04:13:46;;;;;;;22.40;16.98;;;;;;;;;;5117082;28;20032;-81
2021/07/13 04:16:12;;;;;;;20.63;17.73;;;;;;;;;;5116013;28;20024;-81
2021/07/13 04:18:38;;;;;;;19.70;17.75;;;;;;;;;;5117226;28;20020;-81
2021/07/13 04:21:05;;;;;;;23.77;18.80;;;;;;;;;;5117404;28;20020;-82
2021/07/13 04:23:31;;;;;;;20.48;18.08;;;;;;;;;;5117293;28;20069;-81
2021/07/13 04:25:57;;;;;;;20.80;17.73;;;;;;;;;;5116232;28;20068;-81
2021/07/13 04:28:23;;;;;;;19.27;17.40;;;;;;;;;;5117028;28;20031;-81
2021/07/13 04:30:49;;;;;;;21.08;18.25;;;;;;;;;;5117256;28;20429;-82
2021/07/13 04:33:15;;;;;;;22.02;17.92;;;;;;;;;;5119790;28;20028;-81
2021/07/13 04:35:41;;;;;;;22.45;17.63;;;;;;;;;;5120841;28;20024;-82
2021/07/13 04:38:08;;;;;;;19.25;16.38;;;;;;;;;;5121140;28;20020;-82
2021/07/13 04:40:34;;;;;;;22.38;17.42;;;;;;;;;;5120937;28;20020;-82
2021/07/13 04:43:00;;;;;;;21.95;18.13;;;;;;;;;;5119745;28;20046;-82
2021/07/13 04:45:26;;;;;;;20.88;17.13;;;;;;;;;;5120800;28;20023;-82
2021/07/13 04:47:52;;;;;;;23.10;16.13;;;;;;;;;;5120558;28;20313;-82
2021/07/13 04:50:18;;;;;;;18.23;16.33;;;;;;;;;;5120857;28;20301;-82
2021/07/13 04:52:44;;;;;;;17.70;15.55;;;;;;;;;;5120619;28;20023;-82
2021/07/13 04:55:12;;;;;;;16.90;15.20;;;;;;;;;;5120566;28;20047;-82
2021/07/13 04:57:38;;;;;;;17.65;14.50;;;;;;;;;;5120402;28;20456;-82
2021/07/13 05:00:06;;;;;;;17.98;15.63;;;;;;;;;;5120511;28;20114;-82
2021/07/13 05:02:32;;;;;;;18.60;15.15;;;;;;;;;;5120254;28;20024;-82
2021/07/13 05:04:58;;;;;;;22.85;15.02;;;;;;;;;;5120330;28;20055;-81
2021/07/13 05:07:24;;;;;;;21.55;16.30;;;;;;;;;;5120117;28;20024;-82
2021/07/13 05:09:50;;;;;;;23.30;16.60;;;;;;;;;;5120196;28;20046;-80
2021/07/13 05:12:16;;;;;;;28.20;21.67;;;;;;;;;;5120128;28;20027;-80
2021/07/13 05:14:42;;;;;;;24.13;18.83;;;;;;;;;;5119688;28;20043;-80
2021/07/13 05:17:10;;;;;;;27.15;17.55;;;;;;;;;;5118901;28;20036;-80
2021/07/13 05:19:38;;;;;;;20.45;17.55;;;;;;;;;;5120203;28;20024;-80
2021/07/13 05:22:07;;;;;;;23.15;16.70;;;;;;;;;;5120117;28;20027;-80
2021/07/13 05:24:33;;;;;;;19.25;16.10;;;;;;;;;;5120107;28;20032;-80
2021/07/13 05:26:59;;;;;;;20.95;17.85;;;;;;;;;;5119827;28;20054;-80
2021/07/13 05:29:26;;;;;;;21.02;16.80;;;;;;;;;;5119763;28;20015;-80
2021/07/13 05:31:52;;;;;;;17.85;15.95;;;;;;;;;;5119644;28;20034;-80
2021/07/13 05:34:18;;;;;;;22.60;16.58;;;;;;;;;;5119649;28;20055;-80
2021/07/13 05:36:44;;;;;;;21.42;16.88;;;;;;;;;;5118610;28;20027;-79
2021/07/13 05:39:10;;;;;;;18.83;16.83;;;;;;;;;;5119652;28;20035;-79
2021/07/13 05:41:36;;;;;;;22.83;17.13;;;;;;;;;;5119363;28;20075;-79
2021/07/13 05:44:03;;;;;;;18.17;15.95;;;;;;;;;;5118771;28;20039;-80
2021/07/13 05:46:29;;;;;;;20.30;16.20;;;;;;;;;;5119518;28;20074;-80
2021/07/13 05:48:55;;;;;;;19.38;16.17;;;;;;;;;;5119395;28;20023;-80
2021/07/13 05:51:21;;;;;;;19.00;15.35;;;;;;;;;;5118278;28;20318;-80
2021/07/13 05:53:47;;;;;;;20.73;16.08;;;;;;;;;;5119470;28;20099;-80
2021/07/13 05:56:13;;;;;;;17.55;14.70;;;;;;;;;;5119227;28;20023;-80
2021/07/13 05:58:39;;;;;;;16.13;14.43;;;;;;;;;;5119277;28;20027;-80
2021/07/13 06:01:06;;;;;;;17.60;14.50;;;;;;;;;;5119179;28;20302;-80
2021/07/13 06:03:32;;;;;;;20.90;14.05;;;;;;;;;;5119067;28;20053;-80
2021/07/13 06:05:58;;;;;;;16.42;11.77;;;;;;;;;;5119074;28;20024;-80
2021/07/13 06:08:24;;;;;;;20.73;14.15;;;;;;;;;;5119116;28;20114;-80
2021/07/13 06:10:50;;;;;;;13.75;11.95;;;;;;;;;;5119145;28;20397;-80
2021/07/13 06:13:16;;;;;;;16.98;11.52;;;;;;;;;;5118883;28;20069;-80
2021/07/13 06:15:42;;;;;;;14.52;11.93;;;;;;;;;;5118791;28;20123;-80
2021/07/13 06:18:08;;;;;;;13.48;11.32;;;;;;;;;;5118809;28;20019;-80
2021/07/13 06:20:35;;;;;;;14.77;12.07;;;;;;;;;;5118998;28;20028;-80
2021/07/13 06:23:01;;;;;;;16.05;11.00;;;;;;;;;;5118853;27;20031;-80
2021/07/13 06:25:27;;;;;;;12.18;10.90;;;;;;;;;;5118624;28;20019;-80
2021/07/13 06:27:53;;;;;;;14.30;10.10;;;;;;;;;;5118712;28;20032;-80
2021/07/13 06:30:19;;;;;;;15.25;11.45;;;;;;;;;;5118679;28;20019;-80
2021/07/13 06:32:46;;;;;;;35.58;28.10;;;;;;;;;;5117259;28;20100;-82
2021/07/13 06:35:12;;;;;;;21.05;11.00;;;;;;;;;;5117737;28;20024;-83
2021/07/13 06:37:39;;;;;;;15.65;11.02;;;;;;;;;;5118839;28;20020;-82
2021/07/13 06:40:06;;;;;;;14.18;11.15;;;;;;;;;;5118576;28;20036;-82
2021/07/13 06:42:32;;;;;;;16.70;10.43;;;;;;;;;;5116864;28;20040;-81
2021/07/13 06:44:58;;;;;;;21.70;11.20;;;;;;;;;;5118644;28;20032;-83
2021/07/13 06:47:24;;;;;;;16.48;11.40;;;;;;;;;;5118330;28;20023;-82
2021/07/13 06:49:50;;;;;;;18.45;12.80;;;;;;;;;;5118416;28;20019;-82
2021/07/13 06:52:16;;;;;;;17.20;11.57;;;;;;;;;;5117229;28;20023;-82
2021/07/13 06:54:42;;;;;;;15.82;12.35;;;;;;;;;;5118256;28;20098;-74
2021/07/13 06:57:08;;;;;;;14.95;12.27;;;;;;;;;;5117191;28;20490;-77
2021/07/13 06:59:34;;;;;;;17.38;11.95;;;;;;;;;;5117732;28;20027;-74
2021/07/13 07:02:04;;;;;;;16.20;11.85;;;;;;;;;;5118047;28;20319;-75
2021/07/13 07:04:30;;;;;;;15.43;11.65;;;;;;;;;;5117831;28;20054;-74
2021/07/13 07:06:56;;;;;;;12.48;11.05;;;;;;;;;;5116250;28;20027;-74
2021/07/13 07:09:22;;;;;;;15.88;11.10;;;;;;;;;;5117865;28;20023;-74
2021/07/13 07:11:48;;;;;;;15.48;11.18;;;;;;;;;;5117778;28;20015;-75
2021/07/13 07:14:14;;;;;;;17.00;11.35;;;;;;;;;;5117550;28;20051;-74
2021/07/13 07:16:40;;;;;;;13.02;10.93;;;;;;;;;;5117607;28;20029;-74
2021/07/13 07:19:06;;;;;;;13.13;10.95;;;;;;;;;;5117562;28;20402;-74
2021/07/13 07:21:32;;;;;;;13.20;10.88;;;;;;;;;;5117173;28;20413;-74
2021/07/13 07:23:58;;;;;;;17.80;11.60;;;;;;;;;;5116060;28;20042;-74
2021/07/13 07:26:24;;;;;;;19.05;11.65;;;;;;;;;;5117515;28;20020;-74
2021/07/13 07:28:50;;;;;;;15.38;12.10;;;;;;;;;;5117845;28;20099;-74
2021/07/13 07:31:18;;;;;;;19.75;12.93;;;;;;;;;;5117490;28;20027;-74
2021/07/13 07:33:44;;;;;;;13.32;11.63;;;;;;;;;;5117716;28;20051;-74
2021/07/13 07:36:10;;;;;;;15.80;11.68;;;;;;;;;;5116459;28;20405;-73
2021/07/13 07:38:36;;;;;;;14.25;11.70;;;;;;;;;;5117544;28;20473;-73
2021/07/13 07:41:02;;;;;;;15.82;11.75;;;;;;;;;;5117315;28;20020;-73
2021/07/13 07:43:28;;;;;;;17.60;11.10;;;;;;;;;;5117664;28;20296;-73
2021/07/13 07:45:55;;;;;;;13.07;11.68;;;;;;;;;;5117442;28;20053;-73
2021/07/13 07:48:21;;;;;;;13.30;10.98;;;;;;;;;;5117264;28;20024;-73
2021/07/13 07:50:47;;;;;;;16.15;12.18;;;;;;;;;;5117396;28;20072;-73
2021/07/13 07:53:13;;;;;;;14.57;11.38;;;;;;;;;;5117388;28;20370;-73
2021/07/13 07:55:39;;;;;;;13.52;11.23;;;;;;;;;;5117324;28;20318;-72
2021/07/13 07:58:05;;;;;;;15.38;12.13;;;;;;;;;;5117285;28;20466;-73
2021/07/13 08:00:31;;;;;;;12.80;11.07;;;;;;;;;;5117299;28;20024;-73
2021/07/13 08:02:57;;;;;;;20.25;11.15;;;;;;;;;;5117250;28;20024;-73
2021/07/13 08:05:26;;;;;;;13.73;10.98;;;;;;;;;;5117348;28;20023;-73
2021/07/13 08:07:52;;;;;;;15.57;11.50;;;;;;;;;;5119758;28;20030;-73
2021/07/13 08:10:18;;;;;;;12.98;11.63;;;;;;;;;;5121407;28;20022;-73
2021/07/13 08:12:45;;;;;;;15.20;11.85;;;;;;;;;;5121250;28;20026;-73
2021/07/13 08:15:11;;;;;;;14.65;11.05;;;;;;;;;;5120185;28;20044;-73
2021/07/13 08:17:37;;;;;;;13.95;12.02;;;;;;;;;;5121200;28;20414;-73
2021/07/13 08:20:04;;;;;;;13.68;11.93;;;;;;;;;;5120940;28;20102;-73
2021/07/13 08:22:32;;;;;;;15.93;11.60;;;;;;;;;;5121090;28;20440;-73
2021/07/13 08:24:59;;;;;;;14.43;11.98;;;;;;;;;;5121121;28;20038;-73
2021/07/13 08:27:25;;;;;;;16.60;12.65;;;;;;;;;;5120965;28;20051;-72
2021/07/13 08:29:51;;;;;;;16.48;12.48;;;;;;;;;;5121013;28;20026;-74
2021/07/13 08:32:17;;;;;;;13.85;11.95;;;;;;;;;;5120964;28;20019;-73
2021/07/13 08:34:43;;;;;;;19.25;12.55;;;;;;;;;;5120800;28;20387;-73
2021/07/13 08:37:09;;;;;;;18.13;12.65;;;;;;;;;;5121080;28;20024;-73
2021/07/13 08:39:35;;;;;;;20.52;13.35;;;;;;;;;;5121076;28;20027;-73
2021/07/13 08:42:03;;;;;;;19.17;14.88;;;;;;;;;;5120853;28;20020;-73
2021/07/13 08:44:30;;;;;;;17.73;13.75;;;;;;;;;;5120671;28;20035;-72
2021/07/13 08:46:56;;;;;;;15.73;13.25;;;;;;;;;;5120494;28;20020;-73
2021/07/13 08:49:22;;;;;;;14.25;12.35;;;;;;;;;;5120554;28;20020;-73
2021/07/13 08:51:48;;;;;;;20.15;15.15;;;;;;;;;;5120514;28;20304;-73
2021/07/13 08:54:14;;;;;;;20.50;14.40;;;;;;;;;;5120479;28;20023;-73
2021/07/13 08:56:40;;;;;;;18.42;13.70;;;;;;;;;;5120591;28;20043;-72
2021/07/13 08:59:07;;;;;;;21.60;13.75;;;;;;;;;;5120582;28;20096;-73
2021/07/13 09:01:34;;;;;;;16.10;13.63;;;;;;;;;;5120426;28;20035;-72
2021/07/13 09:04:02;;;;;;;17.58;14.25;;;;;;;;;;5120429;28;20314;-73
2021/07/13 09:06:30;;;;;;;16.83;15.15;;;;;;;;;;5120291;27;20047;-73
2021/07/13 09:08:57;;;;;;;16.88;14.90;;;;;;;;;;5120291;28;20225;-73
2021/07/13 09:11:23;;;;;;;18.17;14.90;;;;;;;;;;5120351;28;20350;-73
2021/07/13 09:13:51;;;;;;;17.05;14.43;;;;;;;;;;5120647;28;20031;-73
2021/07/13 09:16:27;;;;;;;19.40;15.00;;;;;;;;;;5120248;28;20027;-73
2021/07/13 09:18:54;;;;;;;16.60;14.25;;;;;;;;;;5118748;28;20028;-73
2021/07/13 09:21:26;;;;;;;22.05;15.23;;;;;;;;;;5118674;28;20470;-73
2021/07/13 09:24:06;;;;;;;17.48;14.90;;;;;;;;;;5120032;28;20020;-73
2021/07/13 09:26:51;;;;;;;18.48;14.55;;;;;;;;;;5119960;28;20095;-73
2021/07/13 09:29:29;;;;;;;16.20;13.80;;;;;;;;;;5120050;28;20023;-73
2021/07/13 09:31:56;;;;;;;20.88;14.00;;;;;;;;;;5119957;28;20019;-73
2021/07/13 09:34:22;;;;;;;18.10;13.48;;;;;;;;;;5119938;28;20046;-73
2021/07/13 09:36:55;;;;;;;15.80;14.13;;;;;;;;;;5119752;28;20050;-73
2021/07/13 09:39:25;;;;;;;22.30;14.50;;;;;;;;;;5119707;28;20027;-73
2021/07/13 09:41:52;;;;;;;17.40;13.63;;;;;;;;;;5119674;28;20024;-73
2021/07/13 09:44:21;;;;;;;18.98;14.55;;;;;;;;;;5119804;28;20306;-74
2021/07/13 09:46:48;;;;;;;16.50;14.52;;;;;;;;;;5119392;28;20032;-74
2021/07/13 09:49:24;;;;;;;14.88;13.48;;;;;;;;;;5119692;28;20193;-73
2021/07/13 09:52:03;;;;;;;16.50;14.23;;;;;;;;;;5119519;28;20028;-73
2021/07/13 09:54:31;;;;;;;17.52;13.35;;;;;;;;;;5119174;28;20019;-73
2021/07/13 09:56:58;;;;;;;13.75;12.07;;;;;;;;;;5119557;28;20027;-73
2021/07/13 09:59:24;;;;;;;15.55;12.77;;;;;;;;;;5119499;28;20032;-73
2021/07/13 10:01:51;;;;;;;21.60;12.93;;;;;;;;;;5117279;28;20035;-73
2021/07/13 10:04:17;;;;;;;15.27;13.32;;;;;;;;;;5117849;28;20119;-73
2021/07/13 10:06:44;;;;;;;13.70;11.80;;;;;;;;;;5118926;28;20410;-73
2021/07/13 10:09:14;;;;;;;15.18;11.48;;;;;;;;;;5118978;28;20155;-73
2021/07/13 10:11:40;;;;;;;15.13;12.00;;;;;;;;;;5119056;28;20027;-73
2021/07/13 10:14:10;;;;;;;15.55;10.82;;;;;;;;;;5118656;28;20048;-73
2021/07/13 10:16:36;;;;;;;12.88;11.30;;;;;;;;;;5119165;28;20107;-73
2021/07/13 10:19:05;;;;;;;15.90;11.93;;;;;;;;;;5117859;28;20032;-73
2021/07/13 10:21:33;;;;;;;15.68;10.93;;;;;;;;;;5118830;28;20031;-72
2021/07/13 10:24:00;;;;;;;11.85;10.65;;;;;;;;;;5119052;28;20047;-73
2021/07/13 10:26:46;;;;;;;14.55;10.98;;;;;;;;;;5118783;28;20030;-73
2021/07/13 10:29:31;;;;;;;11.98;10.77;;;;;;;;;;5117745;28;20024;-72
2021/07/13 10:31:57;;;;;;;13.77;9.82;;;;;;;;;;5118597;28;20054;-73
2021/07/13 10:34:41;;;;;;;11.05;9.77;;;;;;;;;;5118664;28;20072;-73
2021/07/13 10:37:26;;;;;;;9.43;8.52;;;;;;;;;;5118464;28;20034;-73
2021/07/13 10:39:54;;;;;;;10.95;8.60;;;;;;;;;;5118522;28;20031;-73
2021/07/13 10:42:38;;;;;;;9.60;8.52;;;;;;;;;;5118459;28;20370;-73
2021/07/13 10:45:22;;;;;;;9.68;8.65;;;;;;;;;;5118503;28;20032;-72
2021/07/13 10:48:08;;;;;;;10.60;8.73;;;;;;;;;;5118340;28;20057;-73
2021/07/13 10:50:35;;;;;;;8.93;8.02;;;;;;;;;;5118254;28;20028;-72
2021/07/13 10:53:18;;;;;;;8.95;7.85;;;;;;;;;;5118191;28;20016;-74
2021/07/13 10:55:47;;;;;;;10.40;8.52;;;;;;;;;;5118138;28;20024;-73
2021/07/13 10:58:16;;;;;;;8.95;7.90;;;;;;;;;;5118092;28;20027;-73
2021/07/13 11:00:53;;;;;;;10.32;7.72;;;;;;;;;;5118285;28;20380;-73
2021/07/13 11:03:32;;;;;;;9.20;7.53;;;;;;;;;;5116681;28;20040;-73
2021/07/13 11:05:59;;;;;;;11.38;8.50;;;;;;;;;;5118009;28;20035;-74
2021/07/13 11:08:52;;;;;;;9.43;8.40;;;;;;;;;;5117900;28;20079;-73
2021/07/13 11:11:27;;;;;;;10.32;8.07;;;;;;;;;;5117967;28;20026;-74
2021/07/13 11:14:05;;;;;;;12.70;8.32;;;;;;;;;;5117848;28;20035;-74
2021/07/13 11:16:32;;;;;;;9.23;7.75;;;;;;;;;;5118004;28;20019;-74
2021/07/13 11:19:00;;;;;;;10.18;7.63;;;;;;;;;;5117601;28;20044;-74
2021/07/13 11:21:35;;;;;;;17.25;8.15;;;;;;;;;;5117876;28;20026;-74
2021/07/13 11:24:07;;;;;;;8.43;7.63;;;;;;;;;;5117839;28;20036;-74
2021/07/13 11:26:34;;;;;;;8.90;8.05;;;;;;;;;;5117480;28;20031;-74
2021/07/13 11:29:01;;;;;;;10.35;8.25;;;;;;;;;;5117695;28;20023;-74
2021/07/13 11:31:29;;;;;;;9.40;8.32;;;;;;;;;;5117169;28;20065;-73
2021/07/13 11:33:56;;;;;;;11.77;8.02;;;;;;;;;;5117565;28;20035;-72
2021/07/13 11:36:45;;;;;;;10.30;7.90;;;;;;;;;;5117735;28;20019;-73
2021/07/13 11:39:12;;;;;;;13.07;9.75;;;;;;;;;;5055125;28;20060;-74
2021/07/13 11:41:39;;;;;;;9.38;8.40;;;;;;;;;;5054089;28;20371;-74
2021/07/13 11:44:07;;;;;;;9.77;8.13;;;;;;;;;;5054826;28;20033;-74
2021/07/13 11:46:34;;;;;;;8.98;7.95;;;;;;;;;;5054985;28;20025;-74
2021/07/13 11:49:06;;;;;;;9.35;8.07;;;;;;;;;;5055111;28;20052;-74
2021/07/13 11:51:37;;;;;;;9.00;8.10;;;;;;;;;;5055160;28;20477;-74
2021/07/13 11:54:04;;;;;;;11.73;8.60;;;;;;;;;;5054974;28;20036;-73
2021/07/13 11:56:31;;;;;;;8.88;7.80;;;;;;;;;;5054886;28;20075;-74
2021/07/13 11:58:57;;;;;;;8.40;7.57;;;;;;;;;;5054889;28;20045;-73
2021/07/13 12:01:24;;;;;;;10.88;7.80;;;;;;;;;;5054933;28;20155;-73
2021/07/13 12:03:52;;;;;;;9.32;7.35;;;;;;;;;;5054785;28;20029;-74
2021/07/13 12:06:19;;;;;;;13.52;9.15;;;;;;;;;;5037794;28;20083;-74
2021/07/13 12:08:52;;;;;;;9.40;8.38;;;;;;;;;;5054807;28;20492;-74
2021/07/13 12:11:21;;;;;;;10.23;7.93;;;;;;;;;;5054463;28;20025;-73
2021/07/13 12:13:47;;;;;;;12.23;8.87;;;;;;;;;;5054516;28;20025;-74
2021/07/13 12:16:17;;;;;;;9.00;7.57;;;;;;;;;;5088418;28;20036;-74
2021/07/13 12:18:44;;;;;;;11.63;7.68;;;;;;;;;;5116063;28;20318;-72
2021/07/13 12:21:14;;;;;;;12.90;8.13;;;;;;;;;;5117291;28;20028;-73
2021/07/13 12:23:40;;;;;;;;;;;;;;;;;;5117533;28;20409;-73
2021/07/13 12:26:32;;;;;;;9.55;8.52;;;;;;;;;;5117342;28;19910;-73
2021/07/13 12:29:05;;;;;;;10.45;9.35;;;;;;;;;;5114233;28;20055;-73
2021/07/13 12:31:31;;;;;;;11.05;8.07;;;;;;;;;;5117098;28;20348;-73
2021/07/13 12:33:57;;;;;;;14.50;8.55;;;;;;;;;;5116869;28;20019;-73
2021/07/13 12:36:25;;;;;;;10.18;8.75;;;;;;;;;;5117232;28;20028;-73
2021/07/13 12:38:51;;;;;;;9.40;8.38;;;;;;;;;;5117154;28;20026;-73
2021/07/13 12:41:18;;;;;;;9.73;8.48;;;;;;;;;;5116785;28;20019;-73
2021/07/13 12:43:48;;;;;;;9.18;8.02;;;;;;;;;;5117085;28;20030;-73
2021/07/13 12:46:26;;;;;;;9.82;8.82;;;;;;;;;;5116954;28;20441;-73
2021/07/13 12:48:52;;;;;;;11.77;8.20;;;;;;;;;;5116818;28;20107;-73
2021/07/13 12:51:22;;;;;;;14.27;10.27;;;;;;;;;;5116766;28;20031;-73
2021/07/13 12:54:02;;;;;;;12.30;8.25;;;;;;;;;;5118901;28;20030;-73
2021/07/13 12:56:32;;;;;;;11.17;8.53;;;;;;;;;;5120667;28;20019;-73
2021/07/13 12:59:05;;;;;;;14.52;9.23;;;;;;;;;;5120520;28;20428;-73
2021/07/13 13:01:32;;;;;;;12.52;8.85;;;;;;;;;;5120565;28;20080;-73
2021/07/13 13:04:14;;;;;;;9.57;8.63;;;;;;;;;;5120451;28;20472;-73
2021/07/13 13:06:42;;;;;;;15.50;8.82;;;;;;;;;;5120524;28;20035;-73
2021/07/13 13:09:08;;;;;;;9.73;8.07;;;;;;;;;;5120417;28;20016;-73
2021/07/13 13:11:35;;;;;;;12.40;8.68;;;;;;;;;;5120298;28;20099;-73
2021/07/13 13:14:03;;;;;;;10.15;8.73;;;;;;;;;;5120047;28;20055;-73
2021/07/13 13:16:31;;;;;;;13.07;8.75;;;;;;;;;;5120365;28;20032;-73
2021/07/13 13:18:59;;;;;;;9.35;8.30;;;;;;;;;;5120268;27;20396;-73
2021/07/13 13:21:25;;;;;;;9.30;8.15;;;;;;;;;;5119997;28;20074;-73
2021/07/13 13:23:52;;;;;;;9.65;8.10;;;;;;;;;;5119954;28;20023;-73
2021/07/13 13:26:18;;;;;;;9.82;7.72;;;;;;;;;;5120038;28;20069;-73
2021/07/13 13:28:44;;;;;;;9.93;7.80;;;;;;;;;;5119753;28;20024;-73
2021/07/13 13:31:10;;;;;;;13.15;8.65;;;;;;;;;;5119945;28;20417;-73
2021/07/13 13:33:38;;;;;;;11.75;8.13;;;;;;;;;;5119928;28;20024;-73
2021/07/13 13:36:21;;;;;;;11.60;7.68;;;;;;;;;;5119708;28;20032;-73
2021/07/13 13:41:19;;;;;;;10.95;8.15;;;;;;;;;;5119609;28;20103;-73
2021/07/13 13:43:45;;;;;;;11.65;8.38;;;;;;;;;;5119566;28;20031;-73
2021/07/13 13:46:12;;;;;;;9.82;8.20;;;;;;;;;;5119441;28;20065;-73
2021/07/13 13:48:38;;;;;;;11.27;8.10;;;;;;;;;;5119636;28;20046;-73
2021/07/13 13:51:04;;;;;;;9.40;7.93;;;;;;;;;;5119490;28;20026;-73
2021/07/13 13:53:30;;;;;;;12.32;8.98;;;;;;;;;;5119440;28;20019;-73
2021/07/13 13:55:56;;;;;;;10.85;8.57;;;;;;;;;;5119255;28;20024;-73
2021/07/13 13:58:22;;;;;;;11.10;8.45;;;;;;;;;;5119536;28;20084;-73
2021/07/13 14:00:48;;;;;;;10.75;8.48;;;;;;;;;;5119291;28;20023;-73
2021/07/13 14:03:14;;;;;;;10.00;7.32;;;;;;;;;;5119255;28;20321;-73
2021/07/13 14:05:40;;;;;;;9.18;7.60;;;;;;;;;;5118490;28;20020;-73
2021/07/13 14:08:07;;;;;;;10.90;7.00;;;;;;;;;;5118966;28;20061;-73
2021/07/13 14:10:33;;;;;;;9.95;6.75;;;;;;;;;;5118699;28;20085;-73
2021/07/13 14:12:59;;;;;;;12.05;7.80;;;;;;;;;;5118996;28;20024;-73
2021/07/13 14:15:26;;;;;;;9.70;7.72;;;;;;;;;;5118850;28;20048;-73
2021/07/13 14:17:52;;;;;;;13.07;8.60;;;;;;;;;;5118944;28;20409;-73
2021/07/13 14:20:19;;;;;;;12.57;7.97;;;;;;;;;;5118838;28;20028;-73
2021/07/13 14:22:45;;;;;;;9.43;7.80;;;;;;;;;;5118823;28;20480;-73
2021/07/13 14:25:13;;;;;;;9.27;7.55;;;;;;;;;;5118754;28;20034;-72
2021/07/13 14:27:39;;;;;;;8.30;7.50;;;;;;;;;;5118594;28;20052;-73
2021/07/13 14:30:06;;;;;;;8.57;7.68;;;;;;;;;;5118612;28;20110;-73
2021/07/13 14:32:32;;;;;;;8.05;7.10;;;;;;;;;;5118792;28;20016;-73